Insula Oya 2 — FUKI — position and weather

sailwx.info

Track history (hours):
 
Tides and Currents Weather Stations Pressure Air Temp Water Temp Dewpoint Dewpoint Depression Visibility Wind Speed Wind Dir Waves Ship Positions

Insula Oya 2

Last reported at 2014-Jul-28 06:22 UTC. Time now 2014-Jul-29 00:33 UTC.
Position N 46°46' W 002°19'.

Length 50 m; draft 2.5 m.

Type: Passenger vessel. MMSI: 227004900.

Date/timePositionNaut miles runAvg speedWind from/ knotsBaromVisibWave heightAir tempDewpointWater temp
2014-Jul-28 06:22N 46°46' W 002°19'3 0.2
2014-Jul-27 17:14N 46°44' W 002°21'0 0.0
2014-Jul-27 16:33N 46°44' W 002°21'0 0.0
2014-Jul-27 15:33N 46°44' W 002°21'0 0.0
2014-Jul-27 14:33N 46°44' W 002°21'0 0.0
2014-Jul-26 22:33N 46°44' W 002°21'0 0.0
2014-Jul-26 20:27N 46°44' W 002°21'0 0.0
2014-Jul-26 19:28N 46°44' W 002°21'1 0.1
2014-Jul-26 05:34N 46°44' W 002°20'3 0.9
2014-Jul-26 02:21N 46°47' W 002°18'4 0.6
2014-Jul-25 20:33N 46°44' W 002°21'0 0.0
2014-Jul-25 19:33N 46°44' W 002°21'8 2.0
2014-Jul-25 15:33N 46°50' W 002°14'3 0.9
2014-Jul-25 12:28N 46°48' W 002°16'3 0.3
2014-Jul-25 04:23N 46°50' W 002°15'6 6.5
2014-Jul-25 03:32N 46°54' W 002°08'0 0.0
2014-Jul-25 02:33N 46°54' W 002°08'0 0.0
2014-Jul-25 01:24N 46°54' W 002°08'0 0.0
2014-Jul-25 00:33N 46°54' W 002°08'0 0.0
2014-Jul-24 23:29N 46°54' W 002°08'0 0.0
2014-Jul-24 22:30N 46°54' W 002°08'0 0.0
2014-Jul-24 20:24N 46°54' W 002°08'0 0.0
2014-Jul-24 19:33N 46°54' W 002°08'13 1.0
2014-Jul-24 06:21N 46°44' W 002°21'0 0.0
2014-Jul-24 05:33N 46°44' W 002°21'0 0.0
2014-Jul-24 04:33N 46°44' W 002°21'9 8.6
2014-Jul-24 03:33N 46°51' W 002°14'4 0.1
2014-Jul-22 14:15N 46°47' W 002°17'4 1.4
2014-Jul-22 11:26N 46°44' W 002°21'13 2.1
2014-Jul-22 05:17N 46°54' W 002°08'0 0.0
2014-Jul-22 03:14N 46°54' W 002°08'0 0.0
2014-Jul-22 02:11N 46°54' W 002°08'  
2014-Jul-18 18:08N 46°47' W 002°17'3 0.3
2014-Jul-18 09:09N 46°49' W 002°15'  
Track history (hours):
 
Tides and Currents Weather Stations Pressure Air Temp Water Temp Dewpoint Dewpoint Depression Visibility Wind Speed Wind Dir Waves Ship Positions

Insula Oya 2

Last reported at 2014-Jul-28 06:22 UTC. Time now 2014-Jul-29 00:33 UTC.
Position N 46°46' W 002°19'.

Length 50 m; draft 2.5 m.

Type: Passenger vessel. MMSI: 227004900.

Date/timePositionNaut miles runAvg speedWind from/ knotsBaromVisibWave heightAir tempDewpointWater temp
2014-Jul-28 06:22N 46°46' W 002°19'3 0.2
2014-Jul-27 17:14N 46°44' W 002°21'0 0.0
2014-Jul-27 16:33N 46°44' W 002°21'0 0.0
2014-Jul-27 15:33N 46°44' W 002°21'0 0.0
2014-Jul-27 14:33N 46°44' W 002°21'0 0.0
2014-Jul-26 22:33N 46°44' W 002°21'0 0.0
2014-Jul-26 20:27N 46°44' W 002°21'0 0.0
2014-Jul-26 19:28N 46°44' W 002°21'1 0.1
2014-Jul-26 05:34N 46°44' W 002°20'3 0.9
2014-Jul-26 02:21N 46°47' W 002°18'4 0.6
2014-Jul-25 20:33N 46°44' W 002°21'0 0.0
2014-Jul-25 19:33N 46°44' W 002°21'8 2.0
2014-Jul-25 15:33N 46°50' W 002°14'3 0.9
2014-Jul-25 12:28N 46°48' W 002°16'3 0.3
2014-Jul-25 04:23N 46°50' W 002°15'6 6.5
2014-Jul-25 03:32N 46°54' W 002°08'0 0.0
2014-Jul-25 02:33N 46°54' W 002°08'0 0.0
2014-Jul-25 01:24N 46°54' W 002°08'0 0.0
2014-Jul-25 00:33N 46°54' W 002°08'0 0.0
2014-Jul-24 23:29N 46°54' W 002°08'0 0.0
2014-Jul-24 22:30N 46°54' W 002°08'0 0.0
2014-Jul-24 20:24N 46°54' W 002°08'0 0.0
2014-Jul-24 19:33N 46°54' W 002°08'13 1.0
2014-Jul-24 06:21N 46°44' W 002°21'0 0.0
2014-Jul-24 05:33N 46°44' W 002°21'0 0.0
2014-Jul-24 04:33N 46°44' W 002°21'9 8.6
2014-Jul-24 03:33N 46°51' W 002°14'4 0.1
2014-Jul-22 14:15N 46°47' W 002°17'4 1.4
2014-Jul-22 11:26N 46°44' W 002°21'13 2.1
2014-Jul-22 05:17N 46°54' W 002°08'0 0.0
2014-Jul-22 03:14N 46°54' W 002°08'0 0.0
2014-Jul-22 02:11N 46°54' W 002°08'  
2014-Jul-18 18:08N 46°47' W 002°17'3 0.3
2014-Jul-18 09:09N 46°49' W 002°15'  

Dump ship's entire track history